Terminal Aerodrome Forecast
Issued by NWS Billings, MT

Home | Current Version | Previous Version | Text Only | Print | Product List | Glossary On
Versions: 1 2 3 4 5 6 7 8 9 10 11 12 13 14 15 16 17 18 19 20 21 22 23 24 25 26 27 28 29 30 31 32
110
FTUS45 KBYZ 220207 AAA
TAFBIL
TAF AMD
KBIL 220207Z 2202/2224 33008KT 6SM HZ SKC
     FM220500 31005KT 5SM HZ SKC
     FM221000 28005KT 6SM HZ SKC
     FM221500 29007KT P6SM SKC=

USA.gov is the U.S. government's official web portal to all federal, state and local government web resources and services.